KDUX Airport (Moore County) Information

FAA: DUX - ICAO: KDUX

KDUX Airport Location

State Texas
County Moore
City Dumas
KDUX Airport is 2 miles west of Dumas, TX.
Latitude 35-51-26.7504N
Longitude 102-00-47.9133W
Elevation 3,706ft

KDUX Airport METARs

METAR KDUX 240935Z AUTO 17009KT 10SM CLR 14/01 A3005 RMK AO2 T01380005
Altimeter 30.05"
Temperature 13.8°C (56.8°F)
Wind 170° at 9KT
Clouds Skies are clear.
Visibility 10.0mi
Time observed: 2021-09-24T09:35:00Z

KDUX Airport Details

Status Operational
Activation August 1955
Ownership Public
Usage Public
Chart ALBUQUERQUE
ATC on-site No
Beacon schedule sunset-sunrise
Beacon color clear green

KDUX Airport Contacts

Owner MOORE COUNTY
Owner address 715 DUMAS AVE. RM 202, DUMAS, TX 79029
Owner phone 806-935-5588
Manager BLAKE FORTENBERRY/DAVE MORSE
Manager address 1310 SCRIPTURE ST, DENTON, TX 76201
Manager phone 817-566-4500

KDUX Airport (Moore County) Radio Frequencies

KDUX (Airport) Radio Frequencies

UNICOM 122.8
Common traffic advisory frequency (CTAF) 122.8